sensor_id;sensor_type;location;lat;lon;timestamp;pressure;altitude;pressure_sealevel;temperature;humidity
56689;BME280;42565;53.342;-1.534;2023-01-29T00:01:53;100240.83;;;8.89;66.62
56689;BME280;42565;53.342;-1.534;2023-01-29T00:04:20;100239.94;;;8.90;66.58
56689;BME280;42565;53.342;-1.534;2023-01-29T00:06:47;100243.06;;;9.32;65.26
56689;BME280;42565;53.342;-1.534;2023-01-29T00:09:14;100239.29;;;9.17;65.01
56689;BME280;42565;53.342;-1.534;2023-01-29T00:11:42;100230.44;;;8.97;66.79
56689;BME280;42565;53.342;-1.534;2023-01-29T00:14:09;100227.98;;;8.48;67.97
56689;BME280;42565;53.342;-1.534;2023-01-29T00:16:36;100225.24;;;8.06;69.57
56689;BME280;42565;53.342;-1.534;2023-01-29T00:19:03;100224.97;;;8.62;68.65
56689;BME280;42565;53.342;-1.534;2023-01-29T00:21:30;100222.60;;;9.16;67.41
56689;BME280;42565;53.342;-1.534;2023-01-29T00:23:57;100221.64;;;9.16;66.35
56689;BME280;42565;53.342;-1.534;2023-01-29T00:26:25;100218.15;;;9.47;65.00
56689;BME280;42565;53.342;-1.534;2023-01-29T00:28:52;100216.60;;;8.64;66.90
56689;BME280;42565;53.342;-1.534;2023-01-29T00:31:23;100210.64;;;8.87;67.00
56689;BME280;42565;53.342;-1.534;2023-01-29T00:33:50;100212.19;;;8.55;68.63
56689;BME280;42565;53.342;-1.534;2023-01-29T00:36:19;100212.82;;;8.10;70.41
56689;BME280;42565;53.342;-1.534;2023-01-29T00:38:46;100205.50;;;7.51;71.62
56689;BME280;42565;53.342;-1.534;2023-01-29T00:41:14;100204.74;;;7.54;72.87
56689;BME280;42565;53.342;-1.534;2023-01-29T00:43:41;100203.09;;;7.50;73.97
56689;BME280;42565;53.342;-1.534;2023-01-29T00:46:08;100199.24;;;7.51;73.78
56689;BME280;42565;53.342;-1.534;2023-01-29T00:48:36;100195.65;;;7.98;72.28
56689;BME280;42565;53.342;-1.534;2023-01-29T00:51:03;100187.35;;;7.50;72.99
56689;BME280;42565;53.342;-1.534;2023-01-29T00:53:31;100183.38;;;7.51;72.37
56689;BME280;42565;53.342;-1.534;2023-01-29T00:55:58;100179.35;;;7.43;73.53
56689;BME280;42565;53.342;-1.534;2023-01-29T00:58:26;100178.64;;;8.14;71.47
56689;BME280;42565;53.342;-1.534;2023-01-29T01:00:54;100171.84;;;8.16;71.35
56689;BME280;42565;53.342;-1.534;2023-01-29T01:03:20;100167.16;;;7.67;72.11
56689;BME280;42565;53.342;-1.534;2023-01-29T01:05:47;100161.27;;;8.54;70.20
56689;BME280;42565;53.342;-1.534;2023-01-29T01:08:14;100158.02;;;8.46;69.47
56689;BME280;42565;53.342;-1.534;2023-01-29T01:10:41;100152.65;;;8.53;69.14
56689;BME280;42565;53.342;-1.534;2023-01-29T01:13:08;100156.73;;;8.59;69.25
56689;BME280;42565;53.342;-1.534;2023-01-29T01:15:37;100150.25;;;8.92;67.80
56689;BME280;42565;53.342;-1.534;2023-01-29T01:18:05;100142.74;;;8.55;68.28
56689;BME280;42565;53.342;-1.534;2023-01-29T01:20:34;100136.65;;;8.45;69.82
56689;BME280;42565;53.342;-1.534;2023-01-29T01:23:01;100134.54;;;7.80;71.24
56689;BME280;42565;53.342;-1.534;2023-01-29T01:25:28;100129.24;;;7.86;71.09
56689;BME280;42565;53.342;-1.534;2023-01-29T01:27:56;100123.72;;;7.80;71.32
56689;BME280;42565;53.342;-1.534;2023-01-29T01:30:24;100120.96;;;8.18;70.77
56689;BME280;42565;53.342;-1.534;2023-01-29T01:32:51;100121.58;;;7.49;71.89
56689;BME280;42565;53.342;-1.534;2023-01-29T01:35:18;100123.37;;;7.04;75.22
56689;BME280;42565;53.342;-1.534;2023-01-29T01:37:45;100127.47;;;7.50;74.22
56689;BME280;42565;53.342;-1.534;2023-01-29T01:40:15;100123.94;;;7.24;74.47
56689;BME280;42565;53.342;-1.534;2023-01-29T01:42:43;100119.59;;;7.35;75.25
56689;BME280;42565;53.342;-1.534;2023-01-29T01:45:18;100119.75;;;6.78;76.38
56689;BME280;42565;53.342;-1.534;2023-01-29T01:47:48;100122.35;;;6.99;75.64
56689;BME280;42565;53.342;-1.534;2023-01-29T01:50:20;100121.32;;;7.22;75.41
56689;BME280;42565;53.342;-1.534;2023-01-29T01:52:50;100125.60;;;7.28;73.75
56689;BME280;42565;53.342;-1.534;2023-01-29T01:55:22;100120.93;;;7.34;73.64
56689;BME280;42565;53.342;-1.534;2023-01-29T01:57:53;100117.69;;;7.24;74.73
56689;BME280;42565;53.342;-1.534;2023-01-29T02:00:21;100118.81;;;7.74;72.76
56689;BME280;42565;53.342;-1.534;2023-01-29T02:02:51;100118.06;;;7.51;73.24
56689;BME280;42565;53.342;-1.534;2023-01-29T02:05:19;100119.37;;;7.51;73.48
56689;BME280;42565;53.342;-1.534;2023-01-29T02:07:48;100120.11;;;7.12;73.61
56689;BME280;42565;53.342;-1.534;2023-01-29T02:10:16;100116.03;;;7.15;73.91
56689;BME280;42565;53.342;-1.534;2023-01-29T02:12:44;100119.08;;;6.92;74.82
56689;BME280;42565;53.342;-1.534;2023-01-29T02:15:12;100105.29;;;6.56;77.47
56689;BME280;42565;53.342;-1.534;2023-01-29T02:17:40;100104.61;;;6.38;77.25
56689;BME280;42565;53.342;-1.534;2023-01-29T02:20:13;100097.31;;;6.16;77.68
56689;BME280;42565;53.342;-1.534;2023-01-29T02:22:56;100096.06;;;6.81;75.68
56689;BME280;42565;53.342;-1.534;2023-01-29T02:28:18;100100.31;;;7.14;75.32
56689;BME280;42565;53.342;-1.534;2023-01-29T02:30:53;100091.03;;;6.86;75.21
56689;BME280;42565;53.342;-1.534;2023-01-29T02:33:32;100091.64;;;6.97;74.25
56689;BME280;42565;53.342;-1.534;2023-01-29T02:36:11;100085.69;;;6.96;74.94
56689;BME280;42565;53.342;-1.534;2023-01-29T02:38:44;100079.09;;;7.14;75.06
56689;BME280;42565;53.342;-1.534;2023-01-29T02:41:20;100078.98;;;7.70;72.31
56689;BME280;42565;53.342;-1.534;2023-01-29T02:43:53;100077.83;;;8.60;70.21
56689;BME280;42565;53.342;-1.534;2023-01-29T02:46:29;100070.81;;;8.30;69.65
56689;BME280;42565;53.342;-1.534;2023-01-29T02:49:04;100080.08;;;8.17;69.78
56689;BME280;42565;53.342;-1.534;2023-01-29T02:51:37;100071.66;;;8.45;68.88
56689;BME280;42565;53.342;-1.534;2023-01-29T02:54:12;100066.18;;;8.25;69.11
56689;BME280;42565;53.342;-1.534;2023-01-29T02:56:47;100065.23;;;8.03;69.71
56689;BME280;42565;53.342;-1.534;2023-01-29T02:59:20;100061.02;;;7.90;70.39
56689;BME280;42565;53.342;-1.534;2023-01-29T03:01:52;100056.40;;;7.53;72.15
56689;BME280;42565;53.342;-1.534;2023-01-29T03:04:24;100049.81;;;6.73;74.95
56689;BME280;42565;53.342;-1.534;2023-01-29T03:06:55;100045.37;;;6.97;74.79
56689;BME280;42565;53.342;-1.534;2023-01-29T03:09:27;100043.76;;;7.36;72.01
56689;BME280;42565;53.342;-1.534;2023-01-29T03:12:01;100046.22;;;7.53;71.30
56689;BME280;42565;53.342;-1.534;2023-01-29T03:14:35;100039.11;;;8.28;69.58
56689;BME280;42565;53.342;-1.534;2023-01-29T03:17:05;100042.35;;;8.30;69.36
56689;BME280;42565;53.342;-1.534;2023-01-29T03:19:37;100046.31;;;8.08;69.09
56689;BME280;42565;53.342;-1.534;2023-01-29T03:22:06;100045.21;;;7.64;69.72
56689;BME280;42565;53.342;-1.534;2023-01-29T03:24:38;100042.04;;;7.89;69.02
56689;BME280;42565;53.342;-1.534;2023-01-29T03:27:09;100034.04;;;8.63;67.39
56689;BME280;42565;53.342;-1.534;2023-01-29T03:29:39;100038.31;;;8.22;67.51
56689;BME280;42565;53.342;-1.534;2023-01-29T03:32:09;100038.78;;;8.42;66.19
56689;BME280;42565;53.342;-1.534;2023-01-29T03:34:40;100044.98;;;8.38;66.75
56689;BME280;42565;53.342;-1.534;2023-01-29T03:37:12;100045.63;;;7.97;66.93
56689;BME280;42565;53.342;-1.534;2023-01-29T03:39:42;100046.03;;;8.09;67.24
56689;BME280;42565;53.342;-1.534;2023-01-29T03:42:15;100041.59;;;8.37;66.41
56689;BME280;42565;53.342;-1.534;2023-01-29T03:44:52;100031.32;;;7.95;66.44
56689;BME280;42565;53.342;-1.534;2023-01-29T03:47:25;100030.18;;;7.23;68.07
56689;BME280;42565;53.342;-1.534;2023-01-29T03:49:58;100021.57;;;7.38;68.03
56689;BME280;42565;53.342;-1.534;2023-01-29T03:52:34;100017.16;;;8.18;66.57
56689;BME280;42565;53.342;-1.534;2023-01-29T03:55:12;100012.28;;;7.42;68.41
56689;BME280;42565;53.342;-1.534;2023-01-29T03:57:45;100008.94;;;7.43;66.99
56689;BME280;42565;53.342;-1.534;2023-01-29T04:00:19;100010.28;;;7.51;66.71
56689;BME280;42565;53.342;-1.534;2023-01-29T04:02:53;100005.25;;;7.38;67.20
56689;BME280;42565;53.342;-1.534;2023-01-29T04:05:26;100005.04;;;7.61;67.52
56689;BME280;42565;53.342;-1.534;2023-01-29T04:08:00;100001.32;;;7.41;67.77
56689;BME280;42565;53.342;-1.534;2023-01-29T04:10:28;99995.40;;;7.16;67.95
56689;BME280;42565;53.342;-1.534;2023-01-29T04:12:59;99989.30;;;8.04;66.77
56689;BME280;42565;53.342;-1.534;2023-01-29T04:15:30;99984.21;;;7.61;65.88
56689;BME280;42565;53.342;-1.534;2023-01-29T04:18:01;99978.26;;;7.85;66.06
56689;BME280;42565;53.342;-1.534;2023-01-29T04:20:28;99978.54;;;8.17;65.50
56689;BME280;42565;53.342;-1.534;2023-01-29T04:22:56;99972.94;;;7.76;67.36
56689;BME280;42565;53.342;-1.534;2023-01-29T04:25:26;99975.14;;;8.17;66.10
56689;BME280;42565;53.342;-1.534;2023-01-29T04:28:03;99973.44;;;7.32;66.19
56689;BME280;42565;53.342;-1.534;2023-01-29T04:30:40;99972.07;;;7.72;65.55
56689;BME280;42565;53.342;-1.534;2023-01-29T04:33:20;99960.87;;;7.28;66.67
56689;BME280;42565;53.342;-1.534;2023-01-29T04:36:04;99967.86;;;7.23;67.04
56689;BME280;42565;53.342;-1.534;2023-01-29T04:38:49;99965.89;;;7.34;67.38
56689;BME280;42565;53.342;-1.534;2023-01-29T04:41:23;99955.44;;;8.03;66.02
56689;BME280;42565;53.342;-1.534;2023-01-29T04:43:58;99957.74;;;7.66;65.75
56689;BME280;42565;53.342;-1.534;2023-01-29T04:46:33;99949.02;;;8.20;65.16
56689;BME280;42565;53.342;-1.534;2023-01-29T04:49:13;99949.71;;;7.89;66.05
56689;BME280;42565;53.342;-1.534;2023-01-29T04:51:48;99945.06;;;7.57;67.32
56689;BME280;42565;53.342;-1.534;2023-01-29T04:54:21;99937.54;;;7.78;66.95
56689;BME280;42565;53.342;-1.534;2023-01-29T04:56:55;99934.94;;;7.74;66.50
56689;BME280;42565;53.342;-1.534;2023-01-29T04:59:27;99932.79;;;7.29;67.56
56689;BME280;42565;53.342;-1.534;2023-01-29T05:01:58;99929.31;;;7.70;67.02
56689;BME280;42565;53.342;-1.534;2023-01-29T05:04:28;99918.56;;;7.80;67.92
56689;BME280;42565;53.342;-1.534;2023-01-29T05:06:59;99916.35;;;7.44;68.63
56689;BME280;42565;53.342;-1.534;2023-01-29T05:09:27;99915.43;;;7.62;68.75
56689;BME280;42565;53.342;-1.534;2023-01-29T05:11:54;99916.40;;;7.67;68.22
56689;BME280;42565;53.342;-1.534;2023-01-29T05:14:24;99916.24;;;7.10;68.82
56689;BME280;42565;53.342;-1.534;2023-01-29T05:16:53;99912.25;;;7.21;67.64
56689;BME280;42565;53.342;-1.534;2023-01-29T05:19:22;99914.04;;;7.93;66.16
56689;BME280;42565;53.342;-1.534;2023-01-29T05:21:49;99909.85;;;7.37;68.23
56689;BME280;42565;53.342;-1.534;2023-01-29T05:24:18;99911.85;;;7.11;67.24
56689;BME280;42565;53.342;-1.534;2023-01-29T05:26:47;99906.90;;;7.20;67.62
56689;BME280;42565;53.342;-1.534;2023-01-29T05:29:15;99906.02;;;7.21;67.85
56689;BME280;42565;53.342;-1.534;2023-01-29T05:31:43;99901.83;;;7.44;67.55
56689;BME280;42565;53.342;-1.534;2023-01-29T05:34:10;99900.47;;;7.42;67.19
56689;BME280;42565;53.342;-1.534;2023-01-29T05:36:37;99900.05;;;6.84;67.68
56689;BME280;42565;53.342;-1.534;2023-01-29T05:39:05;99891.95;;;7.05;68.43
56689;BME280;42565;53.342;-1.534;2023-01-29T05:41:32;99895.10;;;6.94;69.52
56689;BME280;42565;53.342;-1.534;2023-01-29T05:44:00;99891.70;;;6.49;69.77
56689;BME280;42565;53.342;-1.534;2023-01-29T05:46:27;99890.76;;;6.21;71.91
56689;BME280;42565;53.342;-1.534;2023-01-29T05:48:54;99891.75;;;6.01;71.98
56689;BME280;42565;53.342;-1.534;2023-01-29T05:51:22;99884.02;;;7.02;69.38
56689;BME280;42565;53.342;-1.534;2023-01-29T05:53:48;99886.08;;;6.97;68.90
56689;BME280;42565;53.342;-1.534;2023-01-29T05:56:15;99886.56;;;6.67;70.82
56689;BME280;42565;53.342;-1.534;2023-01-29T05:58:42;99880.35;;;6.96;69.79
56689;BME280;42565;53.342;-1.534;2023-01-29T06:01:10;99879.12;;;6.62;70.26
56689;BME280;42565;53.342;-1.534;2023-01-29T06:03:38;99873.82;;;6.40;71.03
56689;BME280;42565;53.342;-1.534;2023-01-29T06:06:06;99869.83;;;5.71;73.10
56689;BME280;42565;53.342;-1.534;2023-01-29T06:08:33;99870.74;;;6.53;70.41
56689;BME280;42565;53.342;-1.534;2023-01-29T06:11:01;99864.82;;;6.46;70.15
56689;BME280;42565;53.342;-1.534;2023-01-29T06:13:28;99865.36;;;6.69;69.59
56689;BME280;42565;53.342;-1.534;2023-01-29T06:15:55;99859.65;;;6.93;70.23
56689;BME280;42565;53.342;-1.534;2023-01-29T06:18:23;99859.90;;;6.58;68.87
56689;BME280;42565;53.342;-1.534;2023-01-29T06:20:54;99855.13;;;6.89;69.38
56689;BME280;42565;53.342;-1.534;2023-01-29T06:23:25;99846.91;;;7.10;68.42
56689;BME280;42565;53.342;-1.534;2023-01-29T06:25:52;99847.06;;;6.69;68.01
56689;BME280;42565;53.342;-1.534;2023-01-29T06:28:18;99849.82;;;6.10;68.20
56689;BME280;42565;53.342;-1.534;2023-01-29T06:30:45;99852.32;;;6.31;68.05
56689;BME280;42565;53.342;-1.534;2023-01-29T06:33:12;99859.78;;;6.22;67.82
56689;BME280;42565;53.342;-1.534;2023-01-29T06:35:39;99855.82;;;6.36;67.38
56689;BME280;42565;53.342;-1.534;2023-01-29T06:38:06;99854.31;;;6.55;67.18
56689;BME280;42565;53.342;-1.534;2023-01-29T06:40:33;99851.72;;;6.92;65.91
56689;BME280;42565;53.342;-1.534;2023-01-29T06:43:00;99856.05;;;6.10;67.22
56689;BME280;42565;53.342;-1.534;2023-01-29T06:45:27;99849.90;;;6.39;67.46
56689;BME280;42565;53.342;-1.534;2023-01-29T06:47:55;99845.58;;;7.06;66.20
56689;BME280;42565;53.342;-1.534;2023-01-29T06:50:22;99844.59;;;5.99;68.13
56689;BME280;42565;53.342;-1.534;2023-01-29T06:52:49;99837.85;;;6.45;68.36
56689;BME280;42565;53.342;-1.534;2023-01-29T06:55:16;99838.24;;;5.52;70.86
56689;BME280;42565;53.342;-1.534;2023-01-29T06:57:44;99838.87;;;5.89;70.47
56689;BME280;42565;53.342;-1.534;2023-01-29T07:00:13;99837.86;;;6.28;68.91
56689;BME280;42565;53.342;-1.534;2023-01-29T07:02:40;99832.52;;;6.10;68.39
56689;BME280;42565;53.342;-1.534;2023-01-29T07:05:07;99823.31;;;6.07;67.89
56689;BME280;42565;53.342;-1.534;2023-01-29T07:07:39;99818.55;;;6.10;68.06
56689;BME280;42565;53.342;-1.534;2023-01-29T07:10:08;99813.89;;;6.46;66.23
56689;BME280;42565;53.342;-1.534;2023-01-29T07:12:35;99811.94;;;6.69;65.29
56689;BME280;42565;53.342;-1.534;2023-01-29T07:15:03;99820.19;;;6.89;64.45
56689;BME280;42565;53.342;-1.534;2023-01-29T07:17:30;99823.20;;;7.83;62.70
56689;BME280;42565;53.342;-1.534;2023-01-29T07:19:57;99819.76;;;7.34;62.88
56689;BME280;42565;53.342;-1.534;2023-01-29T07:22:23;99808.59;;;7.67;63.33
56689;BME280;42565;53.342;-1.534;2023-01-29T07:24:50;99815.39;;;7.13;62.00
56689;BME280;42565;53.342;-1.534;2023-01-29T07:27:17;99813.40;;;7.21;61.95
56689;BME280;42565;53.342;-1.534;2023-01-29T07:29:44;99806.68;;;7.12;62.13
56689;BME280;42565;53.342;-1.534;2023-01-29T07:32:11;99796.91;;;7.27;60.76
56689;BME280;42565;53.342;-1.534;2023-01-29T07:34:38;99795.25;;;7.17;61.05
56689;BME280;42565;53.342;-1.534;2023-01-29T07:37:05;99789.47;;;7.18;60.91
56689;BME280;42565;53.342;-1.534;2023-01-29T07:39:32;99788.85;;;6.98;60.59
56689;BME280;42565;53.342;-1.534;2023-01-29T07:41:59;99791.08;;;6.87;60.76
56689;BME280;42565;53.342;-1.534;2023-01-29T07:44:26;99792.57;;;6.37;61.21
56689;BME280;42565;53.342;-1.534;2023-01-29T07:46:53;99794.51;;;6.87;60.00
56689;BME280;42565;53.342;-1.534;2023-01-29T07:49:20;99798.22;;;6.54;60.34
56689;BME280;42565;53.342;-1.534;2023-01-29T07:51:47;99789.18;;;6.44;60.80
56689;BME280;42565;53.342;-1.534;2023-01-29T07:54:14;99781.46;;;6.48;61.96
56689;BME280;42565;53.342;-1.534;2023-01-29T07:56:41;99774.53;;;6.60;62.09
56689;BME280;42565;53.342;-1.534;2023-01-29T07:59:07;99767.51;;;5.97;63.90
56689;BME280;42565;53.342;-1.534;2023-01-29T08:01:34;99764.00;;;5.77;63.48
56689;BME280;42565;53.342;-1.534;2023-01-29T08:04:01;99767.93;;;6.56;62.58
56689;BME280;42565;53.342;-1.534;2023-01-29T08:06:28;99767.30;;;5.61;64.65
56689;BME280;42565;53.342;-1.534;2023-01-29T08:08:54;99766.84;;;5.78;65.21
56689;BME280;42565;53.342;-1.534;2023-01-29T08:11:21;99769.70;;;5.32;66.66
56689;BME280;42565;53.342;-1.534;2023-01-29T08:13:49;99763.59;;;4.86;67.65
56689;BME280;42565;53.342;-1.534;2023-01-29T08:16:16;99754.79;;;5.64;65.88
56689;BME280;42565;53.342;-1.534;2023-01-29T08:18:42;99761.26;;;5.42;66.76
56689;BME280;42565;53.342;-1.534;2023-01-29T08:21:09;99763.72;;;4.58;69.25
56689;BME280;42565;53.342;-1.534;2023-01-29T08:23:36;99759.60;;;5.36;68.01
56689;BME280;42565;53.342;-1.534;2023-01-29T08:26:03;99749.46;;;4.45;70.56
56689;BME280;42565;53.342;-1.534;2023-01-29T08:28:31;99747.34;;;4.90;69.85
56689;BME280;42565;53.342;-1.534;2023-01-29T08:30:58;99746.75;;;4.76;69.87
56689;BME280;42565;53.342;-1.534;2023-01-29T08:33:25;99750.87;;;5.52;67.19
56689;BME280;42565;53.342;-1.534;2023-01-29T08:35:52;99757.05;;;4.91;68.66
56689;BME280;42565;53.342;-1.534;2023-01-29T08:38:18;99761.26;;;4.96;68.63
56689;BME280;42565;53.342;-1.534;2023-01-29T08:40:45;99755.22;;;4.63;70.19
56689;BME280;42565;53.342;-1.534;2023-01-29T08:43:13;99757.78;;;5.15;67.98
56689;BME280;42565;53.342;-1.534;2023-01-29T08:45:42;99757.20;;;4.77;69.49
56689;BME280;42565;53.342;-1.534;2023-01-29T08:48:09;99742.63;;;4.59;71.09
56689;BME280;42565;53.342;-1.534;2023-01-29T08:50:36;99732.88;;;4.15;72.71
56689;BME280;42565;53.342;-1.534;2023-01-29T08:53:06;99737.83;;;4.07;72.90
56689;BME280;42565;53.342;-1.534;2023-01-29T08:55:34;99731.39;;;4.36;72.57
56689;BME280;42565;53.342;-1.534;2023-01-29T08:58:03;99712.92;;;4.39;72.17
56689;BME280;42565;53.342;-1.534;2023-01-29T09:00:30;99705.04;;;3.99;74.07
56689;BME280;42565;53.342;-1.534;2023-01-29T09:02:57;99698.44;;;4.61;71.79
56689;BME280;42565;53.342;-1.534;2023-01-29T09:05:24;99699.40;;;4.65;72.85
56689;BME280;42565;53.342;-1.534;2023-01-29T09:07:51;99711.83;;;3.92;73.54
56689;BME280;42565;53.342;-1.534;2023-01-29T09:10:18;99702.46;;;4.40;71.87
56689;BME280;42565;53.342;-1.534;2023-01-29T09:12:45;99696.58;;;4.98;70.38
56689;BME280;42565;53.342;-1.534;2023-01-29T09:15:12;99701.82;;;5.39;69.87
56689;BME280;42565;53.342;-1.534;2023-01-29T09:17:39;99702.09;;;5.17;69.35
56689;BME280;42565;53.342;-1.534;2023-01-29T09:20:07;99694.72;;;4.68;69.90
56689;BME280;42565;53.342;-1.534;2023-01-29T09:22:35;99702.07;;;4.95;69.63
56689;BME280;42565;53.342;-1.534;2023-01-29T09:25:02;99698.53;;;4.77;70.44
56689;BME280;42565;53.342;-1.534;2023-01-29T09:27:30;99691.87;;;5.11;68.37
56689;BME280;42565;53.342;-1.534;2023-01-29T09:29:56;99689.53;;;5.32;68.26
56689;BME280;42565;53.342;-1.534;2023-01-29T09:32:23;99692.52;;;5.86;66.37
56689;BME280;42565;53.342;-1.534;2023-01-29T09:34:51;99698.39;;;6.55;64.00
56689;BME280;42565;53.342;-1.534;2023-01-29T09:37:18;99683.31;;;6.24;64.78
56689;BME280;42565;53.342;-1.534;2023-01-29T09:39:45;99674.53;;;6.68;63.41
56689;BME280;42565;53.342;-1.534;2023-01-29T09:42:20;99687.16;;;6.57;62.96
56689;BME280;42565;53.342;-1.534;2023-01-29T09:44:57;99684.50;;;6.66;62.62
56689;BME280;42565;53.342;-1.534;2023-01-29T09:47:27;99667.40;;;6.45;62.74
56689;BME280;42565;53.342;-1.534;2023-01-29T09:50:00;99662.62;;;7.65;60.54
56689;BME280;42565;53.342;-1.534;2023-01-29T09:52:31;99658.98;;;8.34;58.71
56689;BME280;42565;53.342;-1.534;2023-01-29T09:55:02;99656.54;;;6.63;61.11
56689;BME280;42565;53.342;-1.534;2023-01-29T09:57:37;99649.74;;;7.52;60.77
56689;BME280;42565;53.342;-1.534;2023-01-29T10:00:13;99650.38;;;7.40;61.28
56689;BME280;42565;53.342;-1.534;2023-01-29T10:02:53;99662.42;;;7.13;62.06
56689;BME280;42565;53.342;-1.534;2023-01-29T10:05:31;99642.67;;;7.46;58.95
56689;BME280;42565;53.342;-1.534;2023-01-29T10:08:18;99636.48;;;7.17;59.99
56689;BME280;42565;53.342;-1.534;2023-01-29T10:10:49;99633.99;;;7.65;60.47
56689;BME280;42565;53.342;-1.534;2023-01-29T10:13:26;99638.90;;;8.13;58.74
56689;BME280;42565;53.342;-1.534;2023-01-29T10:16:10;99643.48;;;8.16;58.28
56689;BME280;42565;53.342;-1.534;2023-01-29T10:18:53;99648.96;;;8.24;56.95
56689;BME280;42565;53.342;-1.534;2023-01-29T10:21:40;99639.87;;;8.53;57.18
56689;BME280;42565;53.342;-1.534;2023-01-29T10:24:21;99639.40;;;7.93;58.41
56689;BME280;42565;53.342;-1.534;2023-01-29T10:26:51;99619.17;;;7.22;58.81
56689;BME280;42565;53.342;-1.534;2023-01-29T10:29:19;99594.77;;;6.88;62.14
56689;BME280;42565;53.342;-1.534;2023-01-29T10:31:49;99591.44;;;6.23;62.50
56689;BME280;42565;53.342;-1.534;2023-01-29T10:34:24;99575.90;;;6.05;63.81
56689;BME280;42565;53.342;-1.534;2023-01-29T10:36:54;99588.85;;;6.43;62.67
56689;BME280;42565;53.342;-1.534;2023-01-29T10:39:22;99603.32;;;5.84;64.34
56689;BME280;42565;53.342;-1.534;2023-01-29T10:42:03;99577.92;;;6.13;64.13
56689;BME280;42565;53.342;-1.534;2023-01-29T10:44:45;99566.94;;;6.36;62.54
56689;BME280;42565;53.342;-1.534;2023-01-29T10:47:35;99561.37;;;6.38;62.76
56689;BME280;42565;53.342;-1.534;2023-01-29T10:50:16;99581.69;;;6.62;62.67
56689;BME280;42565;53.342;-1.534;2023-01-29T10:52:57;99557.65;;;6.81;61.93
56689;BME280;42565;53.342;-1.534;2023-01-29T10:55:38;99557.65;;;6.52;63.12
56689;BME280;42565;53.342;-1.534;2023-01-29T10:58:14;99569.29;;;6.64;62.91
56689;BME280;42565;53.342;-1.534;2023-01-29T11:00:45;99555.30;;;6.73;62.62
56689;BME280;42565;53.342;-1.534;2023-01-29T11:03:15;99539.14;;;6.38;63.23
56689;BME280;42565;53.342;-1.534;2023-01-29T11:05:46;99536.34;;;6.84;63.14
56689;BME280;42565;53.342;-1.534;2023-01-29T11:08:18;99534.11;;;6.46;63.89
56689;BME280;42565;53.342;-1.534;2023-01-29T11:10:54;99518.29;;;6.95;62.06
56689;BME280;42565;53.342;-1.534;2023-01-29T11:13:30;99524.92;;;6.39;63.58
56689;BME280;42565;53.342;-1.534;2023-01-29T11:15:58;99522.35;;;6.48;63.33
56689;BME280;42565;53.342;-1.534;2023-01-29T11:18:25;99525.48;;;5.75;66.68
56689;BME280;42565;53.342;-1.534;2023-01-29T11:21:00;99514.68;;;5.40;67.16
56689;BME280;42565;53.342;-1.534;2023-01-29T11:23:30;99495.79;;;6.39;65.66
56689;BME280;42565;53.342;-1.534;2023-01-29T11:25:59;99521.00;;;6.03;65.90
56689;BME280;42565;53.342;-1.534;2023-01-29T11:28:36;99518.72;;;6.09;65.41
56689;BME280;42565;53.342;-1.534;2023-01-29T11:31:14;99522.79;;;6.67;64.33
56689;BME280;42565;53.342;-1.534;2023-01-29T11:33:42;99512.07;;;5.89;66.02
56689;BME280;42565;53.342;-1.534;2023-01-29T11:36:21;99520.16;;;6.08;66.28
56689;BME280;42565;53.342;-1.534;2023-01-29T11:39:14;99510.50;;;6.74;65.29
56689;BME280;42565;53.342;-1.534;2023-01-29T11:41:44;99515.63;;;6.74;64.38
56689;BME280;42565;53.342;-1.534;2023-01-29T11:44:17;99523.28;;;6.71;65.34
56689;BME280;42565;53.342;-1.534;2023-01-29T11:46:44;99524.34;;;6.91;62.84
56689;BME280;42565;53.342;-1.534;2023-01-29T11:49:22;99531.27;;;7.38;62.12
56689;BME280;42565;53.342;-1.534;2023-01-29T11:51:54;99506.36;;;7.30;62.08
56689;BME280;42565;53.342;-1.534;2023-01-29T11:54:27;99493.52;;;7.35;60.91
56689;BME280;42565;53.342;-1.534;2023-01-29T11:56:56;99489.18;;;7.56;60.25
56689;BME280;42565;53.342;-1.534;2023-01-29T11:59:34;99507.96;;;7.52;62.37
56689;BME280;42565;53.342;-1.534;2023-01-29T12:02:11;99498.77;;;7.41;61.77
56689;BME280;42565;53.342;-1.534;2023-01-29T12:04:42;99492.52;;;7.66;61.84
56689;BME280;42565;53.342;-1.534;2023-01-29T12:07:12;99496.87;;;7.53;61.49
56689;BME280;42565;53.342;-1.534;2023-01-29T12:09:39;99505.42;;;6.88;63.71
56689;BME280;42565;53.342;-1.534;2023-01-29T12:12:40;99503.17;;;6.88;64.07
56689;BME280;42565;53.342;-1.534;2023-01-29T12:15:16;99517.48;;;7.36;63.02
56689;BME280;42565;53.342;-1.534;2023-01-29T12:17:51;99532.91;;;8.61;60.53
56689;BME280;42565;53.342;-1.534;2023-01-29T12:20:25;99544.70;;;8.43;60.30
56689;BME280;42565;53.342;-1.534;2023-01-29T12:23:00;99539.53;;;8.69;59.85
56689;BME280;42565;53.342;-1.534;2023-01-29T12:25:40;99547.10;;;8.90;60.36
56689;BME280;42565;53.342;-1.534;2023-01-29T12:28:18;99557.54;;;7.92;62.44
56689;BME280;42565;53.342;-1.534;2023-01-29T12:30:53;99545.32;;;8.57;59.49
56689;BME280;42565;53.342;-1.534;2023-01-29T12:33:32;99547.96;;;8.63;58.71
56689;BME280;42565;53.342;-1.534;2023-01-29T12:36:11;99545.49;;;7.78;61.27
56689;BME280;42565;53.342;-1.534;2023-01-29T12:38:43;99542.79;;;8.07;60.96
56689;BME280;42565;53.342;-1.534;2023-01-29T12:41:23;99553.34;;;7.85;62.24
56689;BME280;42565;53.342;-1.534;2023-01-29T12:43:58;99551.15;;;7.93;61.17
56689;BME280;42565;53.342;-1.534;2023-01-29T12:46:32;99549.98;;;7.90;62.03
56689;BME280;42565;53.342;-1.534;2023-01-29T12:49:07;99549.53;;;8.11;61.12
56689;BME280;42565;53.342;-1.534;2023-01-29T12:51:41;99546.65;;;7.24;62.52
56689;BME280;42565;53.342;-1.534;2023-01-29T12:54:15;99546.28;;;7.18;63.74
56689;BME280;42565;53.342;-1.534;2023-01-29T12:56:46;99538.46;;;8.00;61.19
56689;BME280;42565;53.342;-1.534;2023-01-29T12:59:20;99534.00;;;8.09;61.14
56689;BME280;42565;53.342;-1.534;2023-01-29T13:01:54;99536.69;;;7.75;62.88
56689;BME280;42565;53.342;-1.534;2023-01-29T13:04:30;99532.14;;;6.72;65.55
56689;BME280;42565;53.342;-1.534;2023-01-29T13:07:10;99527.07;;;7.28;65.57
56689;BME280;42565;53.342;-1.534;2023-01-29T13:09:42;99540.89;;;7.05;66.59
56689;BME280;42565;53.342;-1.534;2023-01-29T13:12:13;99533.01;;;6.33;69.05
56689;BME280;42565;53.342;-1.534;2023-01-29T13:14:46;99540.56;;;6.37;68.24
56689;BME280;42565;53.342;-1.534;2023-01-29T13:17:18;99538.81;;;6.68;67.92
56689;BME280;42565;53.342;-1.534;2023-01-29T13:19:49;99518.90;;;6.38;69.49